Time;durP1;ratioP1;P1;durP2;ratioP2;P2;SDS_P1;SDS_P2;PMS_P1;PMS_P2;Temp;Humidity;BMP_temperature;BMP_pressure;BME280_temperature;BME280_humidity;BME280_pressure;Samples;Min_cycle;Max_cycle;Signal;HPM_P1;HPM_P2
2020/12/10 00:00:18;;;;;;;43.67;19.80;;;-1.00;99.90;;;;;;5052895;28;20185;-64
2020/12/10 00:02:44;;;;;;;44.47;18.73;;;-1.00;99.90;;;;;;5053493;28;20177;-64
2020/12/10 00:05:11;;;;;;;52.40;20.00;;;-1.00;99.90;;;;;;5052988;28;20237;-64
2020/12/10 00:07:37;;;;;;;34.53;18.67;;;-1.00;99.90;;;;;;5053515;28;20175;-64
2020/12/10 00:10:05;;;;;;;39.93;19.00;;;-1.00;99.90;;;;;;5052626;28;20183;-64
2020/12/10 00:12:31;;;;;;;47.50;19.93;;;-1.00;99.90;;;;;;5053459;28;20656;-64
2020/12/10 00:14:57;;;;;;;42.40;19.23;;;-1.00;99.90;;;;;;5053226;28;20198;-64
2020/12/10 00:17:27;;;;;;;49.30;21.10;;;-1.00;99.90;;;;;;5053225;28;20182;-64
2020/12/10 00:19:53;;;;;;;38.73;20.17;;;-1.00;99.90;;;;;;5052926;28;20322;-64
2020/12/10 00:22:19;;;;;;;45.60;20.63;;;-1.00;99.90;;;;;;5052891;28;20183;-64
2020/12/10 00:24:47;;;;;;;41.00;19.63;;;-1.00;99.90;;;;;;5053098;28;20194;-64
2020/12/10 00:27:13;;;;;;;40.13;19.37;;;-1.00;99.90;;;;;;5053201;28;20762;-64
2020/12/10 00:29:39;;;;;;;44.53;17.97;;;-1.00;99.90;;;;;;5053219;28;20159;-64
2020/12/10 00:32:04;;;;;;;49.20;19.83;;;-1.00;99.90;;;;;;5052242;28;20679;-64
2020/12/10 00:34:30;;;;;;;47.57;20.53;;;-1.00;99.90;;;;;;5052996;28;20195;-64
2020/12/10 00:36:56;;;;;;;43.13;19.43;;;-1.00;99.90;;;;;;5052732;28;20248;-64
2020/12/10 00:39:22;;;;;;;41.47;19.27;;;-1.00;99.90;;;;;;5052708;28;20258;-64
2020/12/10 00:41:52;;;;;;;44.67;19.23;;;-0.90;99.90;;;;;;5052380;28;20258;-64
2020/12/10 00:44:18;;;;;;;40.63;18.90;;;-0.90;99.90;;;;;;5051961;28;20331;-64
2020/12/10 00:46:43;;;;;;;42.07;18.77;;;-1.00;99.90;;;;;;5052540;28;20183;-64
2020/12/10 00:49:09;;;;;;;37.13;19.33;;;-0.90;99.90;;;;;;5052746;28;20205;-64
2020/12/10 00:51:35;;;;;;;40.20;20.60;;;-0.90;99.90;;;;;;5052334;28;20791;-64
2020/12/10 00:54:00;;;;;;;42.63;18.73;;;-0.90;99.90;;;;;;5052307;28;20207;-64
2020/12/10 00:56:33;;;;;;;43.40;18.93;;;-0.90;99.90;;;;;;5052289;28;20202;-63
2020/12/10 00:58:59;;;;;;;46.70;19.87;;;-0.80;99.90;;;;;;5052580;28;20163;-62
2020/12/10 01:01:24;;;;;;;47.13;21.33;;;-0.80;99.90;;;;;;5051845;28;20257;-64
2020/12/10 01:03:50;;;;;;;37.23;18.37;;;-0.70;99.90;;;;;;5052173;28;20190;-63
2020/12/10 01:06:16;;;;;;;44.43;18.90;;;-0.70;99.90;;;;;;5051976;28;20212;-64
2020/12/10 01:08:41;;;;;;;46.73;20.20;;;-0.60;99.90;;;;;;5052324;28;20179;-64
2020/12/10 01:11:07;;;;;;;43.20;19.00;;;-0.60;99.90;;;;;;5051564;28;20182;-64
2020/12/10 01:13:33;;;;;;;51.60;19.23;;;-0.60;99.90;;;;;;5051914;28;20175;-64
2020/12/10 01:16:00;;;;;;;46.80;19.37;;;-0.60;99.90;;;;;;5051988;28;20564;-64
2020/12/10 01:18:26;;;;;;;44.23;18.87;;;-0.50;99.90;;;;;;5051925;28;20198;-63
2020/12/10 01:20:52;;;;;;;51.70;19.97;;;-0.60;99.90;;;;;;5051819;28;20639;-64
2020/12/10 01:23:17;;;;;;;41.40;19.40;;;-0.50;99.90;;;;;;5052814;28;20212;-64
2020/12/10 01:25:43;;;;;;;42.63;17.23;;;-0.50;99.90;;;;;;5052982;28;20174;-64
2020/12/10 01:28:09;;;;;;;47.60;19.60;;;-0.50;99.90;;;;;;5051685;28;20444;-64
2020/12/10 01:30:34;;;;;;;49.13;20.37;;;-0.50;99.90;;;;;;5051483;28;20183;-64
2020/12/10 01:33:00;;;;;;;52.77;20.70;;;-0.60;99.90;;;;;;5051728;28;20175;-64
2020/12/10 01:35:25;;;;;;;43.10;19.07;;;-0.60;99.90;;;;;;5051591;28;20238;-64
2020/12/10 01:37:51;;;;;;;44.97;19.77;;;-0.60;99.90;;;;;;5051659;28;20253;-64
2020/12/10 01:40:17;;;;;;;45.80;19.73;;;-0.60;99.90;;;;;;5051212;28;20185;-63
2020/12/10 01:42:42;;;;;;;46.30;18.77;;;-0.70;99.90;;;;;;5051594;28;20686;-64
2020/12/10 01:45:08;;;;;;;46.23;18.77;;;-0.70;99.90;;;;;;5051640;28;20265;-64
2020/12/10 01:47:34;;;;;;;45.83;18.37;;;-0.70;99.90;;;;;;5051811;28;20220;-64
2020/12/10 01:50:00;;;;;;;46.80;18.87;;;-0.70;99.90;;;;;;5051433;28;20174;-64
2020/12/10 01:52:26;;;;;;;51.20;20.70;;;-0.70;99.90;;;;;;5033771;28;20573;-64
2020/12/10 01:54:51;;;;;;;45.40;18.90;;;-0.70;99.90;;;;;;5033709;28;20252;-64
2020/12/10 01:57:17;;;;;;;45.47;18.17;;;-0.80;99.90;;;;;;5050311;28;20240;-64
2020/12/10 01:59:45;;;;;;;47.07;19.60;;;-0.80;99.90;;;;;;5051342;28;20171;-64
2020/12/10 02:02:11;;;;;;;44.30;18.53;;;-0.80;99.90;;;;;;5051004;28;20641;-64
2020/12/10 02:04:37;;;;;;;41.73;19.23;;;-0.80;99.90;;;;;;5051664;28;20222;-64
2020/12/10 02:07:04;;;;;;;38.10;17.50;;;-0.80;99.90;;;;;;5051324;28;20285;-64
2020/12/10 02:09:30;;;;;;;49.57;19.83;;;-0.80;99.90;;;;;;5051659;28;20179;-64
2020/12/10 02:11:56;;;;;;;49.97;18.97;;;-0.70;99.90;;;;;;5050636;28;20644;-64
2020/12/10 02:14:22;;;;;;;45.50;19.73;;;-0.70;99.90;;;;;;5051735;28;20205;-64
2020/12/10 02:16:55;;;;;;;47.97;18.70;;;-0.70;99.90;;;;;;5051078;28;20567;-64
2020/12/10 02:19:20;;;;;;;39.60;18.37;;;-0.60;99.90;;;;;;5051291;28;20167;-64
2020/12/10 02:21:46;;;;;;;44.30;18.57;;;-0.60;99.90;;;;;;5050734;28;20181;-64
2020/12/10 02:24:17;;;;;;;39.60;18.33;;;-0.60;99.90;;;;;;5051140;28;20198;-64
2020/12/10 02:26:42;;;;;;;45.47;19.37;;;-0.60;99.90;;;;;;5051024;28;20269;-64
2020/12/10 02:29:08;;;;;;;44.40;18.33;;;-0.70;99.90;;;;;;5051243;28;20664;-64
2020/12/10 02:31:34;;;;;;;47.57;19.93;;;-0.70;99.90;;;;;;5050800;28;20268;-64
2020/12/10 02:34:02;;;;;;;39.37;19.10;;;-0.80;99.90;;;;;;5050950;28;20723;-64
2020/12/10 02:36:28;;;;;;;46.00;19.07;;;-0.70;99.90;;;;;;5050987;28;20303;-64
2020/12/10 02:38:54;;;;;;;48.93;19.90;;;-0.80;99.90;;;;;;5051163;28;20620;-64
2020/12/10 02:41:20;;;;;;;46.80;19.10;;;-0.80;99.90;;;;;;5050500;28;20236;-64
2020/12/10 02:43:45;;;;;;;50.20;19.70;;;-0.90;99.90;;;;;;5051129;28;20222;-64
2020/12/10 02:46:11;;;;;;;46.77;19.43;;;-0.90;99.90;;;;;;5032865;28;20309;-64
2020/12/10 02:48:37;;;;;;;56.87;20.73;;;-1.00;99.90;;;;;;5051026;28;20282;-64
2020/12/10 02:51:04;;;;;;;49.93;19.67;;;-1.00;99.90;;;;;;5050359;28;20258;-64
2020/12/10 02:53:31;;;;;;;42.53;18.83;;;-1.00;99.90;;;;;;5050898;28;20593;-64
2020/12/10 02:55:56;;;;;;;49.77;19.40;;;-1.10;99.90;;;;;;5050567;28;20256;-64
2020/12/10 02:58:22;;;;;;;47.93;19.93;;;-1.20;99.90;;;;;;5049753;28;20187;-64
2020/12/10 03:00:49;;;;;;;58.40;20.93;;;-1.20;99.90;;;;;;5050415;28;20182;-64
2020/12/10 03:03:15;;;;;;;47.60;19.30;;;-1.20;99.90;;;;;;5050653;28;20171;-64
2020/12/10 03:05:41;;;;;;;52.77;19.70;;;-1.20;99.90;;;;;;5050958;28;20174;-63
2020/12/10 03:08:06;;;;;;;50.57;19.37;;;-1.20;99.90;;;;;;5051732;28;20193;-64
2020/12/10 03:10:32;;;;;;;52.80;19.80;;;-1.20;99.90;;;;;;5054443;28;20206;-64
2020/12/10 03:12:58;;;;;;;49.40;21.27;;;-1.20;99.90;;;;;;5052465;28;20577;-64
2020/12/10 03:15:24;;;;;;;46.03;18.47;;;-1.30;99.90;;;;;;5054292;28;20545;-64
2020/12/10 03:17:49;;;;;;;51.73;18.60;;;-1.30;99.90;;;;;;5053860;28;20644;-64
2020/12/10 03:20:16;;;;;;;50.87;20.20;;;-1.30;99.90;;;;;;5053433;28;20187;-63
2020/12/10 03:22:41;;;;;;;52.67;18.13;;;-1.30;99.90;;;;;;5053859;28;20171;-64
2020/12/10 03:25:07;;;;;;;39.57;16.33;;;-1.30;99.90;;;;;;5053809;28;20547;-63
2020/12/10 03:27:33;;;;;;;47.50;18.80;;;-1.40;99.90;;;;;;5054138;28;20265;-64
2020/12/10 03:29:59;;;;;;;51.77;18.80;;;-1.40;99.90;;;;;;5035930;28;20710;-64
2020/12/10 03:32:25;;;;;;;46.10;18.87;;;-1.40;99.90;;;;;;5053962;28;20262;-64
2020/12/10 03:34:51;;;;;;;41.10;17.10;;;-1.40;99.90;;;;;;5054101;28;20198;-64
2020/12/10 03:37:16;;;;;;;39.50;18.73;;;-1.40;99.90;;;;;;5053719;28;20238;-64
2020/12/10 03:39:42;;;;;;;48.03;18.07;;;-1.40;99.90;;;;;;5054126;28;20262;-64
2020/12/10 03:42:07;;;;;;;48.23;19.80;;;-1.40;99.90;;;;;;5053331;28;20549;-63
2020/12/10 03:44:33;;;;;;;42.93;17.47;;;-1.40;99.90;;;;;;5053951;28;20551;-64
2020/12/10 03:46:59;;;;;;;50.10;17.40;;;-1.30;99.90;;;;;;5053584;28;20219;-64
2020/12/10 03:49:24;;;;;;;47.53;20.70;;;-1.30;99.90;;;;;;5053487;28;20179;-64
2020/12/10 03:51:50;;;;;;;50.07;19.83;;;-1.30;99.90;;;;;;5053313;28;20213;-64
2020/12/10 03:54:16;;;;;;;51.97;19.73;;;-1.30;99.90;;;;;;5053456;28;20217;-64
2020/12/10 03:56:41;;;;;;;48.10;20.03;;;-1.30;99.90;;;;;;5053620;28;20206;-64
2020/12/10 03:59:07;;;;;;;51.57;19.43;;;-1.30;99.90;;;;;;5053644;28;20175;-64
2020/12/10 04:01:33;;;;;;;50.30;18.57;;;-1.30;99.90;;;;;;5053255;28;20167;-64
2020/12/10 04:03:59;;;;;;;45.80;19.83;;;-1.30;99.90;;;;;;5053068;28;20675;-67
2020/12/10 04:06:25;;;;;;;48.50;19.57;;;-1.30;99.90;;;;;;5053628;28;20174;-64
2020/12/10 04:08:51;;;;;;;49.73;19.20;;;-1.30;99.90;;;;;;5053395;28;20191;-64
2020/12/10 04:11:17;;;;;;;52.40;19.73;;;-1.30;99.90;;;;;;5053222;28;20695;-64
2020/12/10 04:13:43;;;;;;;55.13;20.97;;;-1.30;99.90;;;;;;5052873;28;20337;-64
2020/12/10 04:16:09;;;;;;;54.73;19.67;;;-1.40;99.90;;;;;;5053051;28;20199;-64
2020/12/10 04:18:40;;;;;;;54.73;19.73;;;-1.30;99.90;;;;;;5052584;28;20178;-64
2020/12/10 04:21:06;;;;;;;45.40;18.67;;;-1.30;99.90;;;;;;5051704;28;20178;-64
2020/12/10 04:23:32;;;;;;;45.93;18.77;;;-1.30;99.90;;;;;;5052902;28;20170;-62
2020/12/10 04:25:58;;;;;;;48.93;19.53;;;-1.30;99.90;;;;;;5052754;28;20596;-63
2020/12/10 04:28:23;;;;;;;59.20;19.80;;;-1.30;99.90;;;;;;5052719;28;20182;-64
2020/12/10 04:30:49;;;;;;;54.40;20.37;;;-1.30;99.90;;;;;;5052857;28;20183;-62
2020/12/10 04:33:15;;;;;;;54.83;19.93;;;-1.30;99.90;;;;;;5052621;28;20513;-62
2020/12/10 04:35:41;;;;;;;62.57;23.17;;;-1.30;99.90;;;;;;5052921;28;20199;-62
2020/12/10 04:38:07;;;;;;;50.17;21.50;;;-1.30;99.90;;;;;;5052343;28;20167;-62
2020/12/10 04:40:34;;;;;;;51.47;21.87;;;-1.30;99.90;;;;;;5052764;28;20221;-63
2020/12/10 04:43:04;;;;;;;62.73;21.93;;;-1.30;99.90;;;;;;5052716;28;20171;-63
2020/12/10 04:45:30;;;;;;;67.67;21.77;;;-1.30;99.90;;;;;;5052342;28;20214;-63
2020/12/10 04:47:56;;;;;;;58.97;22.07;;;-1.30;99.90;;;;;;5052620;28;20365;-64
2020/12/10 04:50:24;;;;;;;62.50;23.43;;;-1.30;99.90;;;;;;5052063;28;20655;-63
2020/12/10 04:52:51;;;;;;;58.03;22.60;;;-1.30;99.90;;;;;;5052515;28;20178;-63
2020/12/10 04:55:18;;;;;;;59.60;22.17;;;-1.30;99.90;;;;;;5052617;28;20696;-65
2020/12/10 04:57:44;;;;;;;56.83;21.67;;;-1.30;99.90;;;;;;5052260;28;20198;-65
2020/12/10 05:00:13;;;;;;;54.30;21.53;;;-1.30;99.90;;;;;;5052036;28;20205;-65
2020/12/10 05:02:39;;;;;;;56.73;21.63;;;-1.30;99.90;;;;;;5052400;28;20182;-65
2020/12/10 05:05:28;;;;;;;58.57;22.17;;;-1.30;99.90;;;;;;5052157;28;20190;-64
2020/12/10 05:07:56;;;;;;;57.17;20.27;;;-1.30;99.90;;;;;;5051977;28;20583;-65
2020/12/10 05:10:22;;;;;;;61.00;21.93;;;-1.40;99.90;;;;;;5051846;28;20539;-64
2020/12/10 05:12:48;;;;;;;63.93;21.33;;;-1.40;99.90;;;;;;5053358;28;20182;-65
2020/12/10 05:15:18;;;;;;;65.07;24.67;;;-1.40;99.90;;;;;;5051708;28;20606;-65
2020/12/10 05:17:44;;;;;;;59.87;23.43;;;-1.40;99.90;;;;;;5052340;28;20536;-65
2020/12/10 05:20:10;;;;;;;65.93;21.80;;;-1.40;99.90;;;;;;5051726;28;20175;-65
2020/12/10 05:22:44;;;;;;;63.50;21.87;;;-1.40;99.90;;;;;;5051186;28;20171;-65
2020/12/10 05:25:09;;;;;;;52.77;20.37;;;-1.40;99.90;;;;;;5051566;28;20195;-65
2020/12/10 05:27:35;;;;;;;56.13;21.30;;;-1.50;99.90;;;;;;5052003;28;20253;-64
2020/12/10 05:30:00;;;;;;;54.50;19.73;;;-1.40;99.90;;;;;;5051328;28;20170;-65
2020/12/10 05:32:30;;;;;;;61.00;21.80;;;-1.40;99.90;;;;;;5051850;28;20663;-65
2020/12/10 05:34:56;;;;;;;65.53;21.50;;;-1.40;99.90;;;;;;5051616;28;20221;-65
2020/12/10 05:37:31;;;;;;;65.67;22.17;;;-1.50;99.90;;;;;;5051825;28;20195;-65
2020/12/10 05:40:01;;;;;;;61.87;20.23;;;-1.50;99.90;;;;;;5051134;28;20430;-65
2020/12/10 05:42:37;;;;;;;58.73;22.37;;;-1.50;99.90;;;;;;5051271;28;20201;-65
2020/12/10 05:45:29;;;;;;;57.30;22.73;;;-1.50;99.90;;;;;;5051346;28;20206;-64
2020/12/10 05:47:57;;;;;;;63.90;23.30;;;-1.40;99.90;;;;;;5048075;28;20187;-65
2020/12/10 05:50:28;;;;;;;72.53;25.67;;;-1.40;99.90;;;;;;5050765;28;20602;-65
2020/12/10 05:53:02;;;;;;;92.00;30.87;;;-1.40;99.90;;;;;;5051738;28;20194;-65
2020/12/10 05:55:28;;;;;;;68.73;26.07;;;-1.40;99.90;;;;;;5051227;28;20687;-65
2020/12/10 05:57:55;;;;;;;62.50;23.63;;;-1.50;99.90;;;;;;5051330;28;20603;-65
2020/12/10 06:00:21;;;;;;;64.50;23.87;;;-1.50;99.90;;;;;;5050964;28;20255;-65
2020/12/10 06:02:48;;;;;;;62.03;23.00;;;-1.50;99.90;;;;;;5051282;28;20894;-65
2020/12/10 06:05:14;;;;;;;63.27;22.90;;;-1.60;99.90;;;;;;5051378;28;20640;-65
2020/12/10 06:07:57;;;;;;;60.43;23.90;;;-1.60;99.90;;;;;;5051003;28;20179;-65
2020/12/10 06:10:23;;;;;;;60.90;23.27;;;-1.70;99.90;;;;;;5051142;28;20166;-65
2020/12/10 06:12:52;;;;;;;61.03;22.50;;;-1.70;99.90;;;;;;5051247;28;20203;-65
2020/12/10 06:15:29;;;;;;;68.17;22.50;;;-1.80;99.90;;;;;;5050918;28;20198;-65
2020/12/10 06:18:02;;;;;;;66.30;24.47;;;-1.80;99.90;;;;;;5051273;28;20542;-65
2020/12/10 06:20:35;;;;;;;62.40;21.87;;;-1.80;99.90;;;;;;5050988;28;20232;-65
2020/12/10 06:23:23;;;;;;;54.20;21.07;;;-1.90;99.90;;;;;;5050244;28;20163;-65
2020/12/10 06:25:49;;;;;;;57.40;20.33;;;-1.90;99.90;;;;;;5051064;28;20182;-64
2020/12/10 06:28:19;;;;;;;62.77;21.60;;;-1.80;99.90;;;;;;5051019;28;20265;-65
2020/12/10 06:31:04;;;;;;;65.60;21.27;;;-1.70;99.90;;;;;;5050753;28;20197;-65
2020/12/10 06:33:41;;;;;;;55.50;20.30;;;-1.80;99.90;;;;;;5050986;28;20232;-65
2020/12/10 06:36:25;;;;;;;61.40;22.73;;;-1.70;99.90;;;;;;5050728;28;20440;-65
2020/12/10 06:38:55;;;;;;;56.33;21.70;;;-1.60;99.90;;;;;;5051221;28;20276;-65
2020/12/10 06:41:22;;;;;;;59.40;22.97;;;-1.70;99.90;;;;;;5050792;28;20202;-65
2020/12/10 06:43:48;;;;;;;69.67;21.60;;;-1.60;99.90;;;;;;5053963;28;20201;-64
2020/12/10 06:46:13;;;;;;;71.77;23.27;;;-1.60;99.90;;;;;;5054765;28;20538;-64
2020/12/10 06:48:47;;;;;;;63.67;24.43;;;-1.60;99.90;;;;;;5054635;28;20253;-64
2020/12/10 06:51:14;;;;;;;66.17;24.83;;;-1.60;99.90;;;;;;5054668;28;20175;-65
2020/12/10 06:53:40;;;;;;;65.07;23.60;;;-1.60;99.90;;;;;;5054546;28;20226;-65
2020/12/10 06:56:13;;;;;;;65.37;23.57;;;-1.60;99.90;;;;;;5054326;28;20198;-65
2020/12/10 06:58:43;;;;;;;74.90;25.17;;;-1.60;99.90;;;;;;5053254;28;20175;-65
2020/12/10 07:01:17;;;;;;;69.13;24.00;;;-1.60;99.90;;;;;;5053897;28;20574;-65
2020/12/10 07:03:44;;;;;;;70.03;24.50;;;-1.50;99.90;;;;;;5054390;28;20586;-65
2020/12/10 07:06:19;;;;;;;72.30;22.63;;;-1.50;99.90;;;;;;5054241;28;20175;-65
2020/12/10 07:09:05;;;;;;;73.73;25.30;;;-1.50;99.90;;;;;;5054174;28;20202;-65
2020/12/10 07:11:42;;;;;;;61.57;23.20;;;-1.50;99.90;;;;;;5054143;28;20182;-65
2020/12/10 07:14:22;;;;;;;72.73;23.67;;;-1.60;99.90;;;;;;5035811;28;20285;-65
2020/12/10 07:16:48;;;;;;;70.73;25.27;;;-1.60;99.90;;;;;;5054154;28;20266;-64
2020/12/10 07:19:14;;;;;;;71.77;23.23;;;-1.60;99.90;;;;;;5053959;28;20254;-65
2020/12/10 07:21:40;;;;;;;67.60;26.67;;;-1.50;99.90;;;;;;5053842;28;20175;-65
2020/12/10 07:24:05;;;;;;;74.33;24.63;;;-1.50;99.90;;;;;;5053674;28;20529;-65
2020/12/10 07:26:31;;;;;;;72.13;25.80;;;-1.50;99.90;;;;;;5054030;28;20203;-65
2020/12/10 07:28:57;;;;;;;75.87;26.10;;;-1.40;99.90;;;;;;5053831;28;20249;-65
2020/12/10 07:31:22;;;;;;;68.50;24.77;;;-1.40;99.90;;;;;;5053726;28;20625;-65
2020/12/10 07:33:48;;;;;;;72.20;25.33;;;-1.40;99.90;;;;;;5053724;28;20234;-64
2020/12/10 07:36:13;;;;;;;78.63;24.93;;;-1.40;99.90;;;;;;5053686;28;20698;-65
2020/12/10 07:38:45;;;;;;;74.63;24.53;;;-1.30;99.90;;;;;;5053562;28;20179;-65
2020/12/10 07:41:11;;;;;;;72.97;25.57;;;-1.30;99.90;;;;;;5053526;28;20523;-65
2020/12/10 07:43:48;;;;;;;71.33;22.83;;;-1.30;99.90;;;;;;5053353;28;20201;-65
2020/12/10 07:46:14;;;;;;;59.73;24.77;;;-1.20;99.90;;;;;;5053539;28;20185;-65
2020/12/10 07:48:40;;;;;;;68.67;24.73;;;-1.20;99.90;;;;;;5053355;28;20245;-65
2020/12/10 07:51:06;;;;;;;80.77;27.27;;;-1.20;99.90;;;;;;5053572;28;20713;-65
2020/12/10 07:53:32;;;;;;;86.50;32.23;;;-1.10;99.90;;;;;;5053075;28;20174;-65
2020/12/10 07:56:00;;;;;;;77.30;24.77;;;-1.10;99.90;;;;;;5053505;28;20222;-65
2020/12/10 07:58:50;;;;;;;68.57;25.27;;;-1.10;99.90;;;;;;5052986;28;20652;-65
2020/12/10 08:01:16;;;;;;;73.00;24.83;;;-1.00;99.90;;;;;;5052913;28;20202;-65
2020/12/10 08:04:08;;;;;;;68.47;23.63;;;-1.00;99.90;;;;;;5053346;28;20605;-65
2020/12/10 08:06:34;;;;;;;70.37;24.93;;;-1.00;99.90;;;;;;5035768;28;20199;-65
2020/12/10 08:09:00;;;;;;;70.60;25.83;;;-1.00;99.90;;;;;;5053553;28;20175;-64
2020/12/10 08:11:26;;;;;;;77.10;26.50;;;-0.90;99.90;;;;;;5052720;28;20174;-65
2020/12/10 08:14:08;;;;;;;72.13;26.10;;;-0.90;99.90;;;;;;5053192;28;20194;-65
2020/12/10 08:16:41;;;;;;;86.47;26.30;;;-0.90;99.90;;;;;;5052619;28;20216;-65
2020/12/10 08:19:15;;;;;;;73.10;25.90;;;-0.90;99.90;;;;;;5053093;28;20162;-65
2020/12/10 08:21:46;;;;;;;76.07;26.77;;;-0.80;99.90;;;;;;5051602;28;20193;-65
2020/12/10 08:24:15;;;;;;;73.00;27.47;;;-0.80;99.90;;;;;;5052348;28;20191;-64
2020/12/10 08:26:41;;;;;;;69.33;25.77;;;-0.70;99.90;;;;;;5052775;28;20182;-65
2020/12/10 08:29:07;;;;;;;82.30;27.43;;;-0.60;99.90;;;;;;5052929;28;20171;-65
2020/12/10 08:31:34;;;;;;;77.03;27.20;;;-0.60;99.90;;;;;;5052250;28;20174;-64
2020/12/10 08:34:00;;;;;;;79.10;27.47;;;-0.50;99.90;;;;;;5052749;28;20545;-65
2020/12/10 08:36:32;;;;;;;75.70;25.60;;;-0.40;99.90;;;;;;5051430;28;20205;-65
2020/12/10 08:39:00;;;;;;;72.43;26.17;;;-0.30;99.90;;;;;;5034592;28;20170;-65
2020/12/10 08:41:33;;;;;;;73.27;28.07;;;-0.20;99.90;;;;;;5052490;28;20194;-65
2020/12/10 08:44:05;;;;;;;81.63;28.67;;;-0.20;99.90;;;;;;5034470;28;20247;-65
2020/12/10 08:46:31;;;;;;;70.30;28.00;;;-0.10;99.90;;;;;;5032634;28;20550;-64
2020/12/10 08:49:21;;;;;;;79.87;27.00;;;0.10;99.90;;;;;;5032344;28;20225;-65
2020/12/10 08:51:49;;;;;;;93.77;30.43;;;0.20;99.90;;;;;;5032335;28;20180;-65
2020/12/10 08:54:15;;;;;;;73.10;28.87;;;0.50;99.90;;;;;;5032727;28;20634;-64
2020/12/10 08:56:41;;;;;;;75.30;29.67;;;0.90;99.90;;;;;;5052336;28;20199;-65
2020/12/10 08:59:07;;;;;;;65.57;27.20;;;1.30;99.90;;;;;;5051770;28;20167;-65
2020/12/10 09:01:33;;;;;;;62.17;25.40;;;1.70;99.90;;;;;;5052093;28;20177;-65
2020/12/10 09:03:59;;;;;;;50.70;23.93;;;2.10;99.90;;;;;;5051691;28;20210;-65
2020/12/10 09:06:35;;;;;;;50.60;22.70;;;2.40;99.90;;;;;;5051357;28;20637;-65
2020/12/10 09:09:02;;;;;;;41.43;20.70;;;2.60;99.90;;;;;;5051878;28;20173;-65
2020/12/10 09:11:28;;;;;;;38.77;19.47;;;2.80;99.90;;;;;;5051558;28;20257;-65
2020/12/10 09:13:53;;;;;;;37.33;19.90;;;3.00;99.90;;;;;;5052023;28;20696;-65
2020/12/10 09:16:19;;;;;;;33.83;19.17;;;3.20;99.90;;;;;;5050770;28;20660;-64
2020/12/10 09:18:45;;;;;;;34.07;17.73;;;3.40;99.90;;;;;;5052110;28;20220;-65
2020/12/10 09:21:12;;;;;;;29.80;17.50;;;3.60;99.90;;;;;;5050805;28;20167;-64
2020/12/10 09:23:43;;;;;;;26.10;15.23;;;3.80;99.90;;;;;;5051991;28;20183;-65
2020/12/10 09:26:11;;;;;;;25.77;15.17;;;3.90;99.90;;;;;;5051291;28;20599;-64
2020/12/10 09:28:37;;;;;;;26.40;15.30;;;3.90;99.90;;;;;;5051791;28;20252;-64
2020/12/10 09:31:03;;;;;;;25.33;14.97;;;3.80;99.90;;;;;;5051190;28;20175;-65
2020/12/10 09:33:29;;;;;;;25.17;14.27;;;3.70;99.90;;;;;;5051706;28;20179;-65
2020/12/10 09:35:55;;;;;;;28.23;14.83;;;3.90;99.90;;;;;;5051761;28;20400;-65
2020/12/10 09:38:20;;;;;;;22.23;13.83;;;3.90;99.90;;;;;;5033569;28;20179;-65
2020/12/10 09:40:46;;;;;;;22.07;14.33;;;3.90;99.90;;;;;;5051135;28;20167;-65
2020/12/10 09:43:12;;;;;;;19.50;12.70;;;3.90;99.90;;;;;;5051603;28;20624;-65
2020/12/10 09:45:37;;;;;;;19.90;12.47;;;3.80;99.90;;;;;;5051453;28;20194;-65
2020/12/10 09:48:03;;;;;;;22.23;13.43;;;3.80;99.90;;;;;;5051430;28;20607;-65
2020/12/10 09:50:31;;;;;;;18.30;11.23;;;3.80;99.90;;;;;;5050994;28;20205;-65
2020/12/10 09:53:12;;;;;;;15.93;10.70;;;3.80;99.90;;;;;;5051473;28;20179;-65
2020/12/10 09:58:19;;;;;;;16.80;12.13;;;3.60;99.90;;;;;;5050907;28;20531;-65
2020/12/10 10:00:49;;;;;;;16.80;10.17;;;3.50;99.90;;;;;;5051193;28;20171;-65
2020/12/10 10:03:16;;;;;;;16.27;11.43;;;3.50;99.90;;;;;;5050992;28;20171;-65
2020/12/10 10:05:41;;;;;;;18.80;11.13;;;3.70;99.90;;;;;;5051378;28;20194;-65
2020/12/10 10:08:07;;;;;;;16.93;10.47;;;3.70;99.90;;;;;;5050705;28;20277;-65
2020/12/10 10:10:33;;;;;;;17.70;9.73;;;3.80;99.90;;;;;;5050546;28;20203;-65
2020/12/10 10:12:58;;;;;;;19.37;10.83;;;3.90;99.90;;;;;;5051849;28;20262;-64
2020/12/10 10:15:24;;;;;;;17.33;11.47;;;4.20;99.90;;;;;;5050737;28;20201;-65
2020/12/10 10:17:50;;;;;;;17.13;10.77;;;4.30;99.90;;;;;;5052504;28;20179;-65
2020/12/10 10:20:16;;;;;;;15.27;9.97;;;4.50;99.90;;;;;;5054483;28;20648;-65
2020/12/10 10:22:42;;;;;;;15.23;9.83;;;4.70;99.90;;;;;;5054544;28;20202;-65
2020/12/10 10:25:08;;;;;;;16.40;10.57;;;5.00;99.90;;;;;;5055019;28;20588;-65
2020/12/10 10:27:34;;;;;;;14.43;10.60;;;5.20;99.90;;;;;;5055319;28;20210;-65
2020/12/10 10:30:00;;;;;;;15.10;9.87;;;5.50;99.90;;;;;;5054774;28;20190;-65
2020/12/10 10:32:26;;;;;;;15.00;10.33;;;5.70;99.90;;;;;;5055595;28;20178;-65
2020/12/10 10:34:52;;;;;;;16.90;10.40;;;6.00;99.90;;;;;;5054976;28;20324;-65
2020/12/10 10:37:17;;;;;;;17.73;10.67;;;6.10;99.90;;;;;;5054737;28;20199;-66
2020/12/10 10:39:43;;;;;;;12.60;9.30;;;6.30;99.90;;;;;;5054755;28;20175;-65
2020/12/10 10:42:09;;;;;;;13.17;9.13;;;6.40;99.90;;;;;;5054939;28;20547;-65
2020/12/10 10:44:34;;;;;;;14.30;9.83;;;6.70;99.90;;;;;;5054579;28;20218;-65
2020/12/10 10:47:00;;;;;;;13.57;9.33;;;7.00;99.90;;;;;;5054685;28;20170;-65
2020/12/10 10:49:25;;;;;;;11.77;8.73;;;7.30;99.90;;;;;;5054483;28;20179;-66
2020/12/10 10:51:51;;;;;;;13.57;9.30;;;7.40;99.90;;;;;;5054914;28;20518;-66
2020/12/10 10:54:17;;;;;;;14.80;9.50;;;7.30;99.90;;;;;;5078746;22;20241;-65
2020/12/10 10:56:42;;;;;;;13.70;8.83;;;7.10;99.90;;;;;;5076787;28;20210;-64
2020/12/10 10:59:08;;;;;;;12.50;8.73;;;6.70;99.90;;;;;;5074581;28;20174;-64
2020/12/10 11:01:34;;;;;;;12.30;9.10;;;6.20;99.90;;;;;;5073828;28;20178;-64
2020/12/10 11:04:00;;;;;;;16.43;9.50;;;5.70;99.90;;;;;;5074818;28;20201;-63
2020/12/10 11:06:25;;;;;;;15.40;10.50;;;5.40;99.90;;;;;;5056094;28;20175;-64
2020/12/10 11:08:51;;;;;;;13.47;9.73;;;5.30;99.90;;;;;;5054959;28;20178;-65
2020/12/10 11:11:18;;;;;;;13.37;9.00;;;5.00;99.90;;;;;;5069399;28;20720;-65
2020/12/10 11:13:44;;;;;;;14.37;9.37;;;4.70;99.90;;;;;;5058224;28;20205;-65
2020/12/10 11:16:09;;;;;;;15.67;9.57;;;4.60;99.90;;;;;;5075083;28;20662;-64
2020/12/10 11:18:35;;;;;;;11.80;8.03;;;4.50;99.90;;;;;;5073424;28;20276;-65
2020/12/10 11:21:01;;;;;;;12.97;8.80;;;4.40;99.90;;;;;;5053965;28;20174;-64
2020/12/10 11:23:26;;;;;;;15.87;9.60;;;4.30;99.90;;;;;;5053594;28;20175;-64
2020/12/10 11:25:52;;;;;;;16.43;10.10;;;4.20;99.90;;;;;;5074201;28;20564;-65
2020/12/10 11:28:17;;;;;;;11.87;8.63;;;4.10;99.90;;;;;;5074190;28;20178;-64
2020/12/10 11:30:43;;;;;;;14.53;8.00;;;4.00;99.90;;;;;;5057172;28;20173;-65
2020/12/10 11:33:09;;;;;;;15.90;9.00;;;3.90;99.90;;;;;;5036991;28;20232;-64
2020/12/10 11:35:34;;;;;;;14.23;8.83;;;3.80;99.90;;;;;;5070115;28;20652;-65
2020/12/10 11:38:00;;;;;;;15.00;10.00;;;3.80;99.90;;;;;;5075467;28;20573;-65
2020/12/10 11:40:26;;;;;;;15.03;9.80;;;3.70;99.90;;;;;;5061261;28;20643;-65
2020/12/10 11:42:52;;;;;;;13.70;8.77;;;3.70;99.90;;;;;;5054781;28;20698;-64
2020/12/10 11:45:18;;;;;;;15.23;9.00;;;3.60;99.90;;;;;;5075028;28;20224;-65
2020/12/10 11:47:46;;;;;;;13.20;9.17;;;3.60;99.90;;;;;;5074924;28;20178;-65
2020/12/10 11:50:18;;;;;;;15.10;10.00;;;3.50;99.90;;;;;;5056274;28;20253;-64
2020/12/10 11:52:47;;;;;;;15.17;9.77;;;3.60;99.90;;;;;;5054487;28;20175;-64
2020/12/10 11:55:13;;;;;;;17.17;9.13;;;3.60;99.90;;;;;;5072310;28;20213;-65
2020/12/10 11:57:38;;;;;;;16.13;10.57;;;3.60;99.90;;;;;;5073906;28;20573;-64
2020/12/10 12:00:06;;;;;;;14.27;9.50;;;3.70;99.90;;;;;;5062940;28;20245;-64
2020/12/10 12:02:32;;;;;;;16.10;10.00;;;3.70;99.90;;;;;;5074373;28;20228;-64
2020/12/10 12:04:58;;;;;;;13.50;9.47;;;3.60;99.90;;;;;;5072259;28;20202;-64
2020/12/10 12:07:23;;;;;;;13.40;9.93;;;3.60;99.90;;;;;;5074295;28;20179;-64
2020/12/10 12:09:49;;;;;;;15.80;10.77;;;3.60;99.90;;;;;;5060755;28;20234;-64
2020/12/10 12:12:14;;;;;;;17.67;10.47;;;3.60;99.90;;;;;;5053395;28;20209;-64
2020/12/10 12:14:40;;;;;;;16.80;10.00;;;3.60;99.90;;;;;;5072280;28;20233;-65
2020/12/10 12:17:06;;;;;;;17.03;10.13;;;3.50;99.90;;;;;;5074122;28;20202;-64
2020/12/10 12:19:32;;;;;;;16.53;10.60;;;3.50;99.90;;;;;;5057387;28;20175;-64
2020/12/10 12:22:01;;;;;;;16.77;10.27;;;3.40;99.90;;;;;;5052849;28;20171;-64
2020/12/10 12:24:27;;;;;;;15.83;10.67;;;3.30;99.90;;;;;;5068753;28;20209;-64
2020/12/10 12:26:52;;;;;;;17.13;10.07;;;3.30;99.90;;;;;;5073749;28;20174;-64
2020/12/10 12:29:18;;;;;;;15.70;10.23;;;3.30;99.90;;;;;;5059371;28;20186;-64
2020/12/10 12:31:44;;;;;;;17.67;10.03;;;3.30;99.90;;;;;;5053412;28;20175;-64
2020/12/10 12:34:09;;;;;;;16.87;10.70;;;3.40;99.90;;;;;;5064896;28;20687;-64